Time;durP1;ratioP1;P1;durP2;ratioP2;P2;SDS_P1;SDS_P2;PMS_P1;PMS_P2;Temp;Humidity;BMP_temperature;BMP_pressure;BME280_temperature;BME280_humidity;BME280_pressure;Samples;Min_cycle;Max_cycle;Signal;HPM_P1;HPM_P2
2023/07/01 00:00:45;;;;;;;11.93;2.97;;;42.90;18.90;;;;;;5020251;28;20031;-59
2023/07/01 00:03:13;;;;;;;14.10;3.10;;;42.90;18.30;;;;;;5019054;28;20013;-55
2023/07/01 00:05:40;;;;;;;9.18;3.35;;;42.80;19.00;;;;;;5020309;28;20021;-58
2023/07/01 00:08:06;;;;;;;8.88;3.40;;;42.70;18.50;;;;;;5021488;28;20306;-59
2023/07/01 00:10:32;;;;;;;8.15;3.05;;;42.60;18.20;;;;;;5013046;28;20018;-57
2023/07/01 00:12:59;;;;;;;17.38;5.15;;;42.60;17.70;;;;;;5014203;28;20048;-59
2023/07/01 00:15:26;;;;;;;12.05;4.18;;;42.50;18.00;;;;;;5014406;28;20029;-57
2023/07/01 00:17:54;;;;;;;12.82;4.53;;;42.50;18.10;;;;;;5016090;28;20022;-59
2023/07/01 00:20:26;;;;;;;19.23;3.67;;;42.50;18.30;;;;;;5016323;28;20034;-55
2023/07/01 00:22:53;;;;;;;9.95;3.22;;;42.30;17.30;;;;;;5011758;28;20037;-60
2023/07/01 00:25:20;;;;;;;5.47;2.90;;;42.30;18.20;;;;;;5012145;28;20135;-59
2023/07/01 00:27:46;;;;;;;9.60;2.70;;;42.20;17.20;;;;;;5017312;28;20013;-57
2023/07/01 00:30:13;;;;;;;7.22;2.97;;;42.20;18.40;;;;;;5011161;28;20053;-55
2023/07/01 00:32:39;;;;;;;11.82;2.90;;;42.20;18.90;;;;;;5010809;28;20021;-58
2023/07/01 00:35:06;;;;;;;5.85;2.80;;;42.10;18.50;;;;;;5016959;28;20028;-57
2023/07/01 00:37:32;;;;;;;12.32;7.80;;;42.00;17.90;;;;;;5009701;28;20034;-55
2023/07/01 00:39:59;;;;;;;9.82;7.35;;;42.00;18.40;;;;;;5009375;28;20014;-55
2023/07/01 00:42:25;;;;;;;12.13;7.32;;;41.90;17.60;;;;;;5011071;28;20068;-58
2023/07/01 00:44:51;;;;;;;13.88;5.88;;;41.90;17.10;;;;;;5011623;28;20025;-60
2023/07/01 00:47:18;;;;;;;8.20;5.35;;;41.80;18.10;;;;;;5011310;28;20024;-56
2023/07/01 00:49:45;;;;;;;7.22;2.53;;;41.80;17.90;;;;;;5010224;28;20045;-55
2023/07/01 00:52:12;;;;;;;17.05;3.25;;;41.60;17.70;;;;;;5010432;28;20013;-51
2023/07/01 00:54:39;;;;;;;9.23;3.03;;;41.60;18.30;;;;;;5010913;28;20021;-56
2023/07/01 00:57:06;;;;;;;15.13;3.00;;;41.60;18.70;;;;;;5010511;28;20073;-59
2023/07/01 00:59:33;;;;;;;7.22;3.10;;;41.60;18.30;;;;;;5008167;28;20025;-57
2023/07/01 01:02:19;;;;;;;10.73;2.45;;;41.50;17.80;;;;;;5008801;28;20038;-60
2023/07/01 01:05:10;;;;;;;8.95;2.60;;;41.40;17.60;;;;;;5010296;28;20041;-57
2023/07/01 01:08:11;;;;;;;8.23;2.90;;;41.40;18.40;;;;;;5010576;28;20026;-59
2023/07/01 01:10:42;;;;;;;14.00;3.58;;;41.30;17.80;;;;;;4983964;28;20030;-57
2023/07/01 01:13:10;;;;;;;14.82;2.97;;;41.30;18.80;;;;;;4983653;28;20105;-55
2023/07/01 01:15:38;;;;;;;11.05;2.83;;;41.20;18.80;;;;;;4984541;28;20031;-58
2023/07/01 01:18:06;;;;;;;9.63;2.72;;;41.10;19.10;;;;;;4983486;28;20053;-60
2023/07/01 01:20:36;;;;;;;4.97;2.20;;;41.10;19.20;;;;;;4983927;28;20570;-59
2023/07/01 01:23:13;;;;;;;7.95;2.40;;;41.00;19.20;;;;;;4983781;28;20048;-61
2023/07/01 01:26:15;;;;;;;9.70;2.75;;;40.90;19.20;;;;;;4984046;28;20487;-59
2023/07/01 01:28:43;;;;;;;15.60;3.33;;;41.00;18.50;;;;;;4979591;28;20030;-61
2023/07/01 01:31:11;;;;;;;7.03;3.25;;;40.90;19.70;;;;;;4982885;28;20122;-57
2023/07/01 01:33:39;;;;;;;17.15;3.58;;;40.80;18.80;;;;;;4982841;28;20034;-54
2023/07/01 01:36:28;;;;;;;13.18;3.35;;;40.70;19.00;;;;;;4985146;28;20061;-60
2023/07/01 01:39:00;;;;;;;12.48;3.42;;;40.70;19.90;;;;;;4983003;28;20034;-59
2023/07/01 01:41:39;;;;;;;18.38;3.25;;;40.60;19.90;;;;;;4982800;28;20160;-59
2023/07/01 01:44:13;;;;;;;13.90;3.20;;;40.50;20.30;;;;;;4982155;28;20015;-55
2023/07/01 01:46:41;;;;;;;13.45;3.05;;;40.40;20.40;;;;;;4982253;28;20021;-52
2023/07/01 01:49:11;;;;;;;9.13;3.10;;;40.40;20.50;;;;;;5017017;28;20451;-55
2023/07/01 01:51:40;;;;;;;10.10;3.70;;;40.30;20.10;;;;;;5012265;28;20021;-59
2023/07/01 01:54:09;;;;;;;8.55;3.38;;;40.30;20.00;;;;;;5012115;28;20076;-58
2023/07/01 01:56:37;;;;;;;14.30;3.58;;;40.20;19.30;;;;;;5015563;28;20071;-54
2023/07/01 01:59:03;;;;;;;11.02;3.28;;;40.10;18.70;;;;;;5016155;28;20155;-53
2023/07/01 02:01:30;;;;;;;12.43;3.80;;;40.10;18.60;;;;;;5016896;28;20033;-57
2023/07/01 02:03:56;;;;;;;11.95;3.67;;;40.00;19.00;;;;;;5013624;28;20067;-59
2023/07/01 02:06:22;;;;;;;12.90;3.03;;;39.90;19.80;;;;;;5013314;28;20478;-58
2023/07/01 02:08:49;;;;;;;18.80;3.60;;;39.80;19.20;;;;;;5014078;28;20053;-56
2023/07/01 02:11:15;;;;;;;14.32;3.67;;;39.70;19.40;;;;;;5014279;28;21827;-58
2023/07/01 02:13:41;;;;;;;13.52;3.85;;;39.60;19.40;;;;;;5013163;28;20080;-58
2023/07/01 02:16:08;;;;;;;17.60;4.20;;;39.60;20.30;;;;;;5017282;28;20017;-58
2023/07/01 02:18:34;;;;;;;19.90;4.25;;;39.50;20.70;;;;;;5014136;28;20359;-55
2023/07/01 02:21:01;;;;;;;21.50;4.07;;;39.40;20.70;;;;;;5011126;28;20038;-56
2023/07/01 02:23:27;;;;;;;16.45;4.18;;;39.30;20.90;;;;;;5014397;28;20018;-50
2023/07/01 02:25:54;;;;;;;21.58;4.18;;;39.20;21.10;;;;;;5012669;28;20122;-56
2023/07/01 02:28:20;;;;;;;28.27;4.38;;;39.20;21.40;;;;;;5012180;28;20017;-56
2023/07/01 02:30:46;;;;;;;21.90;5.28;;;39.10;21.80;;;;;;5012836;28;20051;-54
2023/07/01 02:33:13;;;;;;;18.70;4.80;;;39.00;21.90;;;;;;5014215;28;20018;-55
2023/07/01 02:35:39;;;;;;;19.17;4.72;;;38.90;21.90;;;;;;5013936;28;20059;-54
2023/07/01 02:38:08;;;;;;;37.33;5.47;;;38.80;22.20;;;;;;5015504;28;20563;-57
2023/07/01 02:40:34;;;;;;;25.35;4.65;;;38.80;21.60;;;;;;5014372;28;20063;-56
2023/07/01 02:43:02;;;;;;;35.25;5.47;;;38.70;22.10;;;;;;5012575;28;20024;-57
2023/07/01 02:45:28;;;;;;;37.00;5.05;;;38.70;22.00;;;;;;5011101;28;21502;-59
2023/07/01 02:47:54;;;;;;;41.45;6.03;;;38.60;22.10;;;;;;5013570;28;20053;-62
2023/07/01 02:50:21;;;;;;;35.67;4.70;;;38.50;21.80;;;;;;5021336;28;20040;-56
2023/07/01 02:52:47;;;;;;;38.58;5.15;;;38.50;21.80;;;;;;5012138;28;20050;-57
2023/07/01 02:55:13;;;;;;;34.50;5.15;;;38.40;22.20;;;;;;5014166;28;20747;-57
2023/07/01 02:57:40;;;;;;;35.75;5.25;;;38.30;22.00;;;;;;5013209;28;20084;-56
2023/07/01 03:00:11;;;;;;;35.20;5.78;;;38.20;21.80;;;;;;5012946;28;20423;-57
2023/07/01 03:02:37;;;;;;;48.72;6.55;;;38.20;21.50;;;;;;5011928;28;20167;-55
2023/07/01 03:05:04;;;;;;;34.03;6.47;;;38.10;21.60;;;;;;5011979;28;20070;-59
2023/07/01 03:07:30;;;;;;;38.10;6.20;;;38.00;21.20;;;;;;5012503;28;20036;-58
2023/07/01 03:09:57;;;;;;;29.60;5.70;;;38.00;21.30;;;;;;5012447;28;20460;-59
2023/07/01 03:12:23;;;;;;;27.75;6.07;;;37.90;21.90;;;;;;5012874;28;20062;-61
2023/07/01 03:14:50;;;;;;;42.72;6.35;;;37.80;22.40;;;;;;5011933;28;20095;-56
2023/07/01 03:17:16;;;;;;;35.78;6.35;;;37.70;21.70;;;;;;5010635;28;20435;-58
2023/07/01 03:19:43;;;;;;;42.95;6.32;;;37.60;22.20;;;;;;5012570;28;20050;-56
2023/07/01 03:22:09;;;;;;;44.53;6.38;;;37.50;22.60;;;;;;5019255;28;20368;-57
2023/07/01 03:24:36;;;;;;;33.05;6.15;;;37.50;22.50;;;;;;5012136;28;20176;-57
2023/07/01 03:27:03;;;;;;;44.72;6.28;;;37.50;22.50;;;;;;5012725;28;20053;-58
2023/07/01 03:29:30;;;;;;;44.88;6.00;;;37.50;22.70;;;;;;5009169;28;20078;-56
2023/07/01 03:31:56;;;;;;;39.35;5.63;;;37.40;23.10;;;;;;5012108;28;20103;-56
2023/07/01 03:34:22;;;;;;;39.03;5.07;;;37.40;23.10;;;;;;5013444;28;20081;-56
2023/07/01 03:36:49;;;;;;;37.40;5.78;;;37.30;22.90;;;;;;5017989;28;20536;-57
2023/07/01 03:39:16;;;;;;;40.75;4.97;;;37.30;23.10;;;;;;5013972;28;20594;-57
2023/07/01 03:41:42;;;;;;;31.27;5.85;;;37.30;23.00;;;;;;5010991;28;20063;-54
2023/07/01 03:44:09;;;;;;;42.13;9.80;;;37.20;23.10;;;;;;5011483;28;20504;-60
2023/07/01 03:46:35;;;;;;;46.00;10.50;;;37.20;23.00;;;;;;5011713;28;20111;-54
2023/07/01 03:49:01;;;;;;;40.72;11.52;;;37.20;23.20;;;;;;5015461;28;20092;-52
2023/07/01 03:51:30;;;;;;;46.72;12.25;;;37.10;23.20;;;;;;5011899;28;20048;-53
2023/07/01 03:53:56;;;;;;;50.15;12.88;;;37.00;23.80;;;;;;5009357;28;20101;-54
2023/07/01 03:56:23;;;;;;;41.15;12.70;;;36.90;23.70;;;;;;5011248;28;20056;-54
2023/07/01 03:58:51;;;;;;;56.97;13.93;;;36.70;24.10;;;;;;5012529;28;20053;-55
2023/07/01 04:01:18;;;;;;;50.50;14.00;;;36.60;24.20;;;;;;5011775;28;20070;-58
2023/07/01 04:03:44;;;;;;;48.45;14.48;;;36.50;24.40;;;;;;5012924;28;20516;-62
2023/07/01 04:06:11;;;;;;;46.28;14.60;;;36.40;24.10;;;;;;5010791;28;20051;-61
2023/07/01 04:08:37;;;;;;;58.90;15.77;;;36.40;24.20;;;;;;5010737;28;20117;-57
2023/07/01 04:11:04;;;;;;;57.25;15.98;;;36.30;23.60;;;;;;5011289;28;20059;-57
2023/07/01 04:13:31;;;;;;;54.30;16.00;;;36.30;23.50;;;;;;5012482;28;20072;-51
2023/07/01 04:15:58;;;;;;;54.47;16.52;;;36.20;23.10;;;;;;5012408;28;20080;-55
2023/07/01 04:18:24;;;;;;;54.10;15.15;;;36.20;23.10;;;;;;5013898;28;20065;-56
2023/07/01 04:20:51;;;;;;;45.47;16.40;;;36.20;22.90;;;;;;5009476;28;20160;-56
2023/07/01 04:23:17;;;;;;;33.42;14.85;;;36.20;22.90;;;;;;5012789;28;20059;-56
2023/07/01 04:25:44;;;;;;;47.88;15.15;;;36.10;22.90;;;;;;5012756;28;20151;-54
2023/07/01 04:28:10;;;;;;;49.80;15.07;;;36.10;22.80;;;;;;5009754;28;20749;-59
2023/07/01 04:30:37;;;;;;;44.53;15.38;;;36.00;23.10;;;;;;5010454;28;20114;-61
2023/07/01 04:33:03;;;;;;;47.90;15.25;;;36.00;22.90;;;;;;5012680;28;20094;-60
2023/07/01 04:35:29;;;;;;;46.10;14.98;;;35.90;23.10;;;;;;5017739;28;20047;-61
2023/07/01 04:37:56;;;;;;;50.13;16.38;;;35.80;24.00;;;;;;5012251;28;20056;-60
2023/07/01 04:40:22;;;;;;;43.20;15.45;;;35.70;23.20;;;;;;5017853;28;20380;-60
2023/07/01 04:42:49;;;;;;;51.40;15.43;;;35.60;23.40;;;;;;5017801;28;20054;-61
2023/07/01 04:45:18;;;;;;;54.40;15.57;;;35.60;23.20;;;;;;5009137;28;20080;-55
2023/07/01 04:47:45;;;;;;;49.38;15.23;;;35.50;23.10;;;;;;5012683;28;20055;-58
2023/07/01 04:50:13;;;;;;;45.22;15.43;;;35.50;23.40;;;;;;5012218;28;20075;-57
2023/07/01 04:52:39;;;;;;;32.95;14.55;;;35.40;23.70;;;;;;5011591;28;20453;-57
2023/07/01 04:55:06;;;;;;;39.78;14.25;;;35.30;23.90;;;;;;5014063;28;20119;-62
2023/07/01 04:57:33;;;;;;;45.28;13.90;;;35.20;23.90;;;;;;5010483;28;20066;-56
2023/07/01 04:59:59;;;;;;;37.70;13.50;;;35.00;24.20;;;;;;5009946;28;20126;-58
2023/07/01 05:02:25;;;;;;;49.75;13.05;;;34.90;24.40;;;;;;5013569;28;20070;-58
2023/07/01 05:04:52;;;;;;;46.20;12.00;;;34.90;24.20;;;;;;5018508;28;20172;-63
2023/07/01 05:07:18;;;;;;;42.45;12.10;;;34.70;24.20;;;;;;5015152;28;20447;-60
2023/07/01 05:09:45;;;;;;;36.58;10.95;;;34.60;25.10;;;;;;5014854;28;20060;-66
2023/07/01 05:12:11;;;;;;;40.60;11.43;;;34.50;25.60;;;;;;5008588;28;20090;-61
2023/07/01 05:14:38;;;;;;;42.28;10.32;;;34.40;26.10;;;;;;5008102;28;20087;-63
2023/07/01 05:17:04;;;;;;;48.08;11.25;;;34.30;26.20;;;;;;5018487;28;20060;-57
2023/07/01 05:19:30;;;;;;;48.90;13.05;;;34.10;26.20;;;;;;5010069;28;20102;-60
2023/07/01 05:21:57;;;;;;;59.65;12.68;;;34.00;25.20;;;;;;5019062;28;20119;-59
2023/07/01 05:24:23;;;;;;;50.53;12.13;;;34.00;25.70;;;;;;5011106;28;20071;-58
2023/07/01 05:26:51;;;;;;;53.40;12.77;;;34.00;25.70;;;;;;5009982;28;20065;-61
2023/07/01 05:29:20;;;;;;;48.08;11.73;;;33.90;25.90;;;;;;5019499;28;20121;-58
2023/07/01 05:31:48;;;;;;;53.45;13.30;;;33.90;25.90;;;;;;5012650;28;20138;-59
2023/07/01 05:34:15;;;;;;;73.20;15.52;;;33.80;26.90;;;;;;5013937;28;20072;-58
2023/07/01 05:36:41;;;;;;;62.53;15.23;;;33.80;26.70;;;;;;5011403;28;20580;-60
2023/07/01 05:39:08;;;;;;;56.00;15.23;;;33.70;26.90;;;;;;5015505;28;20068;-57
2023/07/01 05:41:34;;;;;;;61.78;16.33;;;33.70;26.70;;;;;;5013885;28;20131;-59
2023/07/01 05:44:01;;;;;;;60.70;15.35;;;33.60;26.60;;;;;;5013666;28;20080;-60
2023/07/01 05:46:27;;;;;;;54.95;15.40;;;33.50;26.80;;;;;;5012574;28;20187;-60
2023/07/01 05:48:54;;;;;;;68.22;15.60;;;33.50;26.50;;;;;;5014957;28;20132;-57
2023/07/01 05:51:20;;;;;;;65.82;16.08;;;33.50;26.60;;;;;;5020387;28;20414;-58
2023/07/01 05:53:47;;;;;;;66.40;14.55;;;33.40;26.40;;;;;;5012840;28;20078;-56
2023/07/01 05:56:14;;;;;;;57.75;14.70;;;33.40;26.90;;;;;;5012956;28;20195;-57
2023/07/01 05:58:41;;;;;;;61.88;14.43;;;33.30;27.00;;;;;;5014310;28;20069;-58
2023/07/01 06:01:08;;;;;;;54.05;14.20;;;33.20;26.80;;;;;;5014323;28;20104;-54
2023/07/01 06:03:34;;;;;;;61.25;14.15;;;33.20;27.90;;;;;;5015002;28;20060;-54
2023/07/01 06:06:00;;;;;;;61.47;14.20;;;33.20;27.60;;;;;;5018208;28;20103;-57
2023/07/01 06:08:27;;;;;;;59.63;13.45;;;33.10;27.20;;;;;;5015072;28;20107;-52
2023/07/01 06:10:53;;;;;;;57.88;13.40;;;33.10;27.40;;;;;;5013186;28;20072;-57
2023/07/01 06:13:20;;;;;;;57.78;14.10;;;33.00;27.50;;;;;;5015917;28;20113;-56
2023/07/01 06:15:46;;;;;;;60.47;15.75;;;33.00;27.60;;;;;;5016944;28;20080;-54
2023/07/01 06:18:13;;;;;;;64.30;14.40;;;32.90;27.60;;;;;;5020992;28;20073;-55
2023/07/01 06:20:39;;;;;;;59.78;14.52;;;32.80;27.40;;;;;;5015385;28;20076;-58
2023/07/01 06:23:06;;;;;;;58.72;15.02;;;32.80;27.80;;;;;;5013928;28;20074;-59
2023/07/01 06:25:32;;;;;;;65.18;15.43;;;32.70;28.00;;;;;;5015089;28;20064;-56
2023/07/01 06:27:58;;;;;;;66.28;15.40;;;32.70;28.10;;;;;;5014466;28;20126;-58
2023/07/01 06:30:25;;;;;;;81.82;29.92;;;32.70;27.90;;;;;;5014558;28;20098;-59
2023/07/01 06:32:52;;;;;;;75.60;29.00;;;32.70;27.70;;;;;;5019286;28;20070;-57
2023/07/01 06:35:19;;;;;;;81.30;31.90;;;32.60;27.80;;;;;;5014960;28;20086;-58
2023/07/01 06:37:45;;;;;;;73.22;30.48;;;32.60;27.90;;;;;;5013427;28;20111;-59
2023/07/01 06:40:12;;;;;;;94.18;39.92;;;32.50;29.20;;;;;;5012979;28;20071;-59
2023/07/01 06:42:40;;;;;;;87.68;31.13;;;32.50;28.50;;;;;;5016665;28;20064;-58
2023/07/01 06:45:07;;;;;;;75.95;30.88;;;32.40;28.70;;;;;;5012254;28;20069;-60
2023/07/01 06:47:33;;;;;;;71.15;21.23;;;32.40;29.90;;;;;;5014440;28;20540;-58
2023/07/01 06:50:00;;;;;;;61.00;20.42;;;32.30;29.40;;;;;;5019212;28;20102;-57
2023/07/01 06:52:26;;;;;;;72.88;17.15;;;32.30;29.70;;;;;;5013999;28;20150;-58
2023/07/01 06:54:52;;;;;;;54.90;17.10;;;32.30;29.60;;;;;;5013737;28;20077;-59
2023/07/01 06:57:19;;;;;;;62.78;16.40;;;32.20;29.50;;;;;;5013911;28;20151;-58
2023/07/01 06:59:45;;;;;;;54.83;16.83;;;32.10;29.20;;;;;;5013564;28;20073;-62
2023/07/01 07:02:11;;;;;;;66.25;17.63;;;32.10;29.40;;;;;;5013868;28;20171;-54
2023/07/01 07:04:38;;;;;;;75.85;17.52;;;32.00;29.00;;;;;;5014209;28;20119;-59
2023/07/01 07:07:04;;;;;;;59.53;17.48;;;32.00;29.40;;;;;;5017798;28;20538;-58
2023/07/01 07:09:31;;;;;;;75.90;18.42;;;32.00;29.50;;;;;;5013877;28;20118;-57
2023/07/01 07:11:57;;;;;;;62.13;17.95;;;31.90;29.20;;;;;;5022284;28;20075;-57
2023/07/01 07:14:24;;;;;;;66.82;18.55;;;31.90;29.10;;;;;;5017359;28;20122;-58
2023/07/01 07:16:52;;;;;;;61.25;18.30;;;31.90;29.30;;;;;;5018339;28;20108;-59
2023/07/01 07:19:18;;;;;;;76.05;21.67;;;31.90;29.50;;;;;;5012641;28;20089;-57
2023/07/01 07:21:45;;;;;;;65.30;20.73;;;31.80;29.20;;;;;;5012620;28;20097;-56
2023/07/01 07:24:11;;;;;;;79.85;21.52;;;31.80;29.60;;;;;;5010472;28;20594;-59
2023/07/01 07:26:37;;;;;;;90.22;21.40;;;31.80;29.50;;;;;;5015810;28;20100;-62
2023/07/01 07:29:04;;;;;;;88.72;22.23;;;31.80;30.00;;;;;;5016316;28;20077;-61
2023/07/01 07:31:30;;;;;;;75.82;22.23;;;31.80;30.50;;;;;;5013870;28;20071;-62
2023/07/01 07:33:57;;;;;;;71.95;21.63;;;31.70;30.10;;;;;;5018036;28;20079;-61
2023/07/01 07:36:23;;;;;;;79.70;22.30;;;31.70;30.40;;;;;;5014016;28;20075;-58
2023/07/01 07:38:49;;;;;;;71.65;21.00;;;31.70;30.50;;;;;;5012717;28;20630;-59
2023/07/01 07:41:16;;;;;;;66.57;21.00;;;31.60;30.70;;;;;;5013174;28;20097;-61
2023/07/01 07:43:42;;;;;;;72.10;21.25;;;31.60;30.20;;;;;;5012417;28;20063;-61
2023/07/01 07:46:08;;;;;;;69.47;20.50;;;31.50;30.30;;;;;;5012412;28;20131;-61
2023/07/01 07:48:35;;;;;;;54.35;19.15;;;31.50;30.70;;;;;;5013704;28;20132;-62
2023/07/01 07:51:01;;;;;;;76.38;20.05;;;31.50;30.50;;;;;;5011418;28;20140;-61
2023/07/01 07:53:28;;;;;;;68.97;20.33;;;31.40;31.10;;;;;;5012295;28;20123;-54
2023/07/01 07:55:54;;;;;;;66.00;19.23;;;31.40;31.00;;;;;;5012760;28;20091;-61
2023/07/01 07:58:20;;;;;;;58.28;17.70;;;31.30;31.10;;;;;;5013859;28;20087;-59
2023/07/01 08:00:47;;;;;;;82.20;22.15;;;31.30;31.50;;;;;;5012621;28;20124;-60
2023/07/01 08:03:13;;;;;;;55.15;20.02;;;31.30;31.70;;;;;;5012512;28;20076;-57
2023/07/01 08:05:40;;;;;;;59.08;18.42;;;31.30;32.30;;;;;;5012669;28;20075;-62
2023/07/01 08:08:07;;;;;;;64.57;19.38;;;31.20;32.50;;;;;;5012047;28;20175;-59
2023/07/01 08:10:33;;;;;;;57.83;18.23;;;31.20;32.20;;;;;;5010527;28;20098;-57
2023/07/01 08:13:00;;;;;;;64.95;19.63;;;31.10;31.70;;;;;;5010765;28;20165;-58
2023/07/01 08:15:26;;;;;;;74.32;20.83;;;31.10;31.60;;;;;;5012678;28;20100;-62
2023/07/01 08:17:52;;;;;;;73.63;19.13;;;31.00;31.80;;;;;;5014893;28;20137;-62
2023/07/01 08:20:19;;;;;;;87.53;21.42;;;31.00;30.90;;;;;;5011644;28;20081;-59
2023/07/01 08:22:45;;;;;;;85.72;21.13;;;31.00;31.90;;;;;;5011929;28;20453;-61
2023/07/01 08:25:11;;;;;;;72.28;20.55;;;31.00;31.50;;;;;;5010800;28;20083;-60
2023/07/01 08:27:38;;;;;;;89.22;20.80;;;31.00;31.40;;;;;;5011675;28;20119;-61
2023/07/01 08:30:05;;;;;;;67.25;17.58;;;31.00;31.20;;;;;;5018317;28;20132;-59
2023/07/01 08:32:33;;;;;;;59.15;17.00;;;31.00;31.40;;;;;;5016561;28;20142;-58
2023/07/01 08:34:59;;;;;;;64.38;15.32;;;31.00;31.20;;;;;;5017706;28;20088;-57
2023/07/01 08:37:26;;;;;;;67.50;15.85;;;31.00;31.20;;;;;;5017876;28;20082;-59
2023/07/01 08:39:52;;;;;;;65.13;15.82;;;30.90;31.10;;;;;;5018584;28;20096;-57
2023/07/01 08:42:26;;;;;;;59.55;15.05;;;31.00;31.80;;;;;;5012954;28;20098;-60
2023/07/01 08:44:54;;;;;;;46.72;13.23;;;30.80;31.70;;;;;;5013309;28;20114;-59
2023/07/01 08:47:23;;;;;;;50.80;13.13;;;30.80;32.10;;;;;;5015900;28;20150;-56
2023/07/01 08:49:54;;;;;;;59.88;13.60;;;30.70;31.90;;;;;;5016233;28;20626;-53
2023/07/01 08:52:24;;;;;;;52.17;11.98;;;30.60;32.50;;;;;;5010687;28;20538;-57
2023/07/01 08:54:52;;;;;;;38.63;11.98;;;30.60;32.50;;;;;;5014999;28;20538;-61
2023/07/01 08:57:19;;;;;;;42.05;11.90;;;30.60;32.20;;;;;;5013066;28;20558;-59
2023/07/01 08:59:48;;;;;;;42.05;12.00;;;30.50;32.80;;;;;;5012309;28;20526;-57
2023/07/01 09:02:15;;;;;;;48.67;12.15;;;30.40;32.50;;;;;;5019964;28;20107;-62
2023/07/01 09:04:41;;;;;;;50.78;11.57;;;30.50;32.20;;;;;;5019003;28;20095;-60
2023/07/01 09:07:10;;;;;;;43.97;10.82;;;30.40;32.10;;;;;;5012508;28;20081;-58
2023/07/01 09:09:38;;;;;;;27.75;9.85;;;30.50;32.00;;;;;;5016843;28;20080;-59
2023/07/01 09:12:05;;;;;;;36.15;10.35;;;30.50;32.60;;;;;;5014367;28;20087;-61
2023/07/01 09:14:57;;;;;;;38.42;9.82;;;30.50;32.30;;;;;;5017174;28;20093;-59
2023/07/01 09:17:29;;;;;;;37.13;9.70;;;30.40;32.90;;;;;;5016397;28;20126;-60
2023/07/01 09:19:59;;;;;;;47.97;10.65;;;30.30;33.10;;;;;;5017631;28;20087;-61
2023/07/01 09:22:27;;;;;;;42.72;9.90;;;30.30;33.20;;;;;;5017182;28;20111;-57
2023/07/01 09:24:55;;;;;;;32.92;10.07;;;30.30;33.40;;;;;;5019151;28;20436;-61
2023/07/01 09:27:21;;;;;;;45.65;15.75;;;30.20;32.50;;;;;;5015442;28;20443;-58
2023/07/01 09:29:47;;;;;;;36.65;12.65;;;30.10;32.50;;;;;;5011289;28;20107;-60
2023/07/01 09:32:31;;;;;;;41.17;12.90;;;30.10;32.40;;;;;;5010614;28;20098;-64
2023/07/01 09:34:57;;;;;;;29.00;7.50;;;30.00;32.20;;;;;;5012898;28;20080;-59
2023/07/01 09:37:25;;;;;;;26.98;7.40;;;29.90;32.40;;;;;;5012737;28;20072;-60
2023/07/01 09:39:51;;;;;;;30.77;6.60;;;29.90;32.30;;;;;;5010954;28;20088;-59
2023/07/01 09:42:19;;;;;;;22.75;6.88;;;29.90;32.50;;;;;;5013280;28;20099;-59
2023/07/01 09:45:05;;;;;;;26.23;5.97;;;29.80;33.60;;;;;;5019159;28;20079;-57
2023/07/01 09:47:32;;;;;;;34.10;6.50;;;29.80;33.40;;;;;;5011625;28;20360;-60
2023/07/01 09:49:58;;;;;;;32.47;7.05;;;29.70;33.40;;;;;;5007503;28;20435;-60
2023/07/01 09:52:43;;;;;;;31.35;6.30;;;29.70;34.20;;;;;;5010800;28;20081;-59
2023/07/01 09:55:09;;;;;;;25.52;6.47;;;29.70;33.40;;;;;;5011650;28;20191;-61
2023/07/01 09:57:36;;;;;;;26.98;6.88;;;29.70;34.60;;;;;;5009609;28;20982;-61
2023/07/01 10:00:03;;;;;;;26.25;6.95;;;29.70;34.30;;;;;;5015979;28;20088;-63
2023/07/01 10:02:29;;;;;;;19.45;6.15;;;29.60;34.60;;;;;;5009090;28;20199;-61
2023/07/01 10:04:56;;;;;;;22.60;5.97;;;29.60;35.20;;;;;;5010688;28;20075;-62
2023/07/01 10:07:22;;;;;;;30.70;6.78;;;29.50;35.00;;;;;;5010835;28;20544;-59
2023/07/01 10:09:51;;;;;;;35.88;7.40;;;29.50;35.40;;;;;;5011342;28;20194;-59
2023/07/01 10:12:19;;;;;;;36.65;7.57;;;29.50;35.40;;;;;;5011000;28;20087;-58
2023/07/01 10:14:51;;;;;;;27.10;8.50;;;29.50;36.60;;;;;;5011930;28;20102;-60
2023/07/01 10:17:18;;;;;;;46.17;8.68;;;29.40;36.70;;;;;;5014196;28;20076;-61
2023/07/01 10:19:48;;;;;;;38.67;8.15;;;29.30;36.20;;;;;;5009162;28;20089;-61
2023/07/01 10:22:29;;;;;;;40.10;8.27;;;29.20;38.10;;;;;;5015682;28;20192;-59
2023/07/01 10:25:04;;;;;;;27.83;7.53;;;29.20;38.00;;;;;;5010423;28;20126;-61
2023/07/01 10:27:42;;;;;;;34.03;8.75;;;29.20;37.90;;;;;;5011079;28;20092;-60
2023/07/01 10:30:13;;;;;;;40.65;8.75;;;29.10;37.60;;;;;;5013215;28;20073;-59
2023/07/01 10:32:40;;;;;;;53.35;8.55;;;29.10;37.70;;;;;;5011667;28;20169;-58
2023/07/01 10:35:07;;;;;;;38.63;8.07;;;29.10;38.10;;;;;;5015117;28;20162;-59
2023/07/01 10:37:34;;;;;;;40.70;8.77;;;29.10;39.20;;;;;;5014612;28;20084;-59
2023/07/01 10:40:21;;;;;;;42.75;9.20;;;28.90;38.30;;;;;;5013162;28;20568;-58
2023/07/01 10:42:48;;;;;;;49.90;9.63;;;28.90;38.50;;;;;;5012461;28;20121;-58
2023/07/01 10:45:14;;;;;;;47.25;8.55;;;29.00;38.70;;;;;;5012737;28;20171;-61
2023/07/01 10:48:03;;;;;;;30.65;8.35;;;29.00;39.20;;;;;;5010021;28;20430;-59
2023/07/01 10:50:30;;;;;;;34.35;8.65;;;28.90;40.00;;;;;;5009935;28;20584;-59
2023/07/01 10:52:56;;;;;;;46.80;9.07;;;28.90;40.20;;;;;;5013972;28;20084;-61
2023/07/01 10:55:49;;;;;;;36.42;9.05;;;28.80;39.20;;;;;;5013988;28;20089;-58
2023/07/01 10:58:24;;;;;;;43.78;9.57;;;28.80;39.10;;;;;;5013470;28;20085;-61
2023/07/01 11:00:59;;;;;;;36.88;9.18;;;28.80;39.10;;;;;;5013185;28;20089;-60
2023/07/01 11:03:35;;;;;;;31.73;9.85;;;28.70;39.90;;;;;;5011743;28;20081;-59
2023/07/01 11:06:03;;;;;;;48.78;10.70;;;28.50;40.30;;;;;;5013871;28;20730;-57
2023/07/01 11:08:50;;;;;;;41.47;9.70;;;28.60;40.10;;;;;;5014299;28;20126;-59
2023/07/01 11:11:27;;;;;;;36.05;10.05;;;28.60;40.30;;;;;;5015626;28;20080;-60
2023/07/01 11:13:54;;;;;;;36.05;9.95;;;28.60;40.50;;;;;;5017417;28;20123;-59
2023/07/01 11:16:21;;;;;;;47.20;10.35;;;28.60;40.60;;;;;;5012529;28;20112;-58
2023/07/01 11:18:49;;;;;;;38.15;10.02;;;28.60;40.80;;;;;;5011789;28;20093;-59
2023/07/01 11:21:26;;;;;;;39.88;9.20;;;28.50;41.00;;;;;;5009818;28;20097;-60
2023/07/01 11:23:56;;;;;;;40.42;9.95;;;28.50;41.30;;;;;;5012604;28;20081;-56
2023/07/01 11:26:31;;;;;;;46.08;10.60;;;28.40;41.10;;;;;;5012409;28;20093;-57
2023/07/01 11:28:57;;;;;;;48.72;10.23;;;28.30;41.00;;;;;;5010574;28;20077;-58
2023/07/01 11:31:30;;;;;;;36.38;10.60;;;28.30;41.00;;;;;;5012941;28;20081;-56
2023/07/01 11:33:58;;;;;;;55.45;10.98;;;28.20;41.40;;;;;;5013179;28;20108;-59
2023/07/01 11:36:37;;;;;;;44.92;11.80;;;28.30;41.40;;;;;;5018050;28;20101;-63
2023/07/01 11:39:06;;;;;;;49.53;11.93;;;28.30;41.50;;;;;;5013376;28;20175;-60
2023/07/01 11:41:34;;;;;;;58.47;12.00;;;28.10;42.40;;;;;;5011257;28;20121;-62
2023/07/01 11:44:00;;;;;;;56.22;12.93;;;28.10;41.80;;;;;;5007938;28;20085;-58
2023/07/01 11:46:32;;;;;;;48.38;13.32;;;28.10;41.70;;;;;;5011859;28;20197;-58
2023/07/01 11:49:17;;;;;;;54.42;13.07;;;28.10;41.70;;;;;;5019198;28;20504;-62
2023/07/01 11:51:48;;;;;;;50.65;13.77;;;28.10;41.60;;;;;;5012754;28;20426;-59
2023/07/01 11:54:17;;;;;;;51.63;13.85;;;28.10;41.40;;;;;;5016596;28;20197;-59
2023/07/01 11:56:45;;;;;;;64.10;14.40;;;28.00;41.60;;;;;;5011271;28;20081;-56
2023/07/01 11:59:29;;;;;;;61.90;14.13;;;28.10;41.90;;;;;;5012014;28;20452;-60
2023/07/01 12:01:55;;;;;;;60.28;13.68;;;28.10;42.10;;;;;;5012518;28;20199;-58
2023/07/01 12:04:23;;;;;;;58.70;14.40;;;28.00;42.60;;;;;;5014002;28;20082;-55
2023/07/01 12:06:50;;;;;;;51.05;14.63;;;28.00;43.20;;;;;;5010650;28;20073;-58
2023/07/01 12:09:29;;;;;;;52.13;14.68;;;27.90;43.80;;;;;;5010546;28;20081;-58
2023/07/01 12:11:56;;;;;;;46.55;14.63;;;27.90;44.20;;;;;;5008303;28;20442;-58
2023/07/01 12:14:23;;;;;;;49.55;15.73;;;27.80;44.50;;;;;;5009887;28;21547;-59
2023/07/01 12:16:51;;;;;;;53.20;15.38;;;27.70;45.40;;;;;;5011480;28;20090;-57
2023/07/01 12:19:22;;;;;;;40.72;15.85;;;27.70;46.20;;;;;;5010982;28;20121;-62
2023/07/01 12:21:50;;;;;;;48.78;15.80;;;27.70;47.20;;;;;;5017377;28;20112;-61
2023/07/01 12:24:21;;;;;;;37.63;15.88;;;27.70;47.90;;;;;;5010325;28;20085;-61
2023/07/01 12:26:54;;;;;;;59.75;17.08;;;27.60;48.30;;;;;;5014830;28;20156;-60
2023/07/01 12:29:22;;;;;;;47.08;17.63;;;27.60;49.50;;;;;;5010286;28;20073;-57
2023/07/01 12:31:49;;;;;;;46.00;17.50;;;27.50;49.70;;;;;;5010292;28;20077;-61
2023/07/01 12:34:16;;;;;;;51.28;17.35;;;27.40;50.50;;;;;;5012564;28;20764;-60
2023/07/01 12:36:44;;;;;;;60.17;16.60;;;27.40;51.00;;;;;;5012796;28;20095;-58
2023/07/01 12:39:11;;;;;;;47.40;15.23;;;27.40;51.50;;;;;;5018870;28;20531;-60